Time;durP1;ratioP1;P1;durP2;ratioP2;P2;SDS_P1;SDS_P2;PMS_P1;PMS_P2;Temp;Humidity;BMP_temperature;BMP_pressure;BME280_temperature;BME280_humidity;BME280_pressure;Samples;Min_cycle;Max_cycle;Signal;HPM_P1;HPM_P2
2022/04/21 00:00:39;;;;;;;13.80;8.43;;;7.50;99.90;;;;;;4954698;28;20049;-62
2022/04/21 00:03:06;;;;;;;13.43;8.65;;;7.50;99.90;;;;;;4967146;28;20061;-63
2022/04/21 00:05:34;;;;;;;16.08;8.40;;;7.50;99.90;;;;;;4953615;28;20250;-63
2022/04/21 00:08:00;;;;;;;17.20;9.02;;;7.50;99.90;;;;;;4945630;28;20053;-63
2022/04/21 00:10:27;;;;;;;15.30;9.23;;;7.40;99.90;;;;;;4962619;28;20050;-63
2022/04/21 00:12:56;;;;;;;13.18;9.35;;;7.50;99.90;;;;;;4949978;28;20145;-63
2022/04/21 00:15:23;;;;;;;15.13;9.57;;;7.50;99.90;;;;;;4940545;28;20051;-62
2022/04/21 00:17:48;;;;;;;13.63;9.68;;;7.50;99.90;;;;;;4965329;28;20065;-63
2022/04/21 00:20:15;;;;;;;15.50;9.98;;;7.50;99.90;;;;;;4959554;28;20493;-63
2022/04/21 00:25:27;;;;;;;18.40;10.95;;;7.50;99.90;;;;;;4962554;28;20797;-63
2022/04/21 00:27:53;;;;;;;16.77;10.65;;;7.50;99.90;;;;;;4947247;28;20116;-63
2022/04/21 00:30:19;;;;;;;17.75;10.45;;;7.40;99.90;;;;;;4967035;28;20405;-63
2022/04/21 00:32:46;;;;;;;15.73;11.10;;;7.40;99.90;;;;;;4962703;28;20050;-63
2022/04/21 00:35:13;;;;;;;15.85;9.95;;;7.40;99.90;;;;;;4966889;28;20097;-63
2022/04/21 00:37:54;;;;;;;15.30;11.05;;;7.40;99.90;;;;;;4943617;28;20050;-63
2022/04/21 00:40:22;;;;;;;18.02;11.10;;;7.40;99.90;;;;;;4963315;28;20081;-63
2022/04/21 00:42:48;;;;;;;17.58;11.40;;;7.40;99.90;;;;;;4944196;28;22286;-63
2022/04/21 00:45:15;;;;;;;19.05;10.88;;;7.40;99.90;;;;;;4959483;28;20121;-63
2022/04/21 00:47:43;;;;;;;16.40;11.35;;;7.40;99.90;;;;;;4961479;28;20551;-63
2022/04/21 00:50:15;;;;;;;17.13;11.63;;;7.40;99.90;;;;;;4964121;28;21077;-63
2022/04/21 00:52:41;;;;;;;19.00;12.35;;;7.40;99.90;;;;;;4966040;28;20150;-63
2022/04/21 00:55:09;;;;;;;16.77;11.27;;;7.40;99.90;;;;;;4963922;28;20042;-63
2022/04/21 00:57:36;;;;;;;20.08;11.93;;;7.40;99.90;;;;;;4961324;28;20492;-63
2022/04/21 01:00:05;;;;;;;16.20;11.45;;;7.40;99.90;;;;;;4963644;28;20864;-63
2022/04/21 01:02:49;;;;;;;17.75;11.55;;;7.40;99.90;;;;;;4962596;28;20074;-62
2022/04/21 01:05:25;;;;;;;17.75;11.68;;;7.30;99.90;;;;;;4961586;28;20720;-63
2022/04/21 01:08:12;;;;;;;17.00;11.75;;;7.30;99.90;;;;;;4966426;28;20062;-62
2022/04/21 01:10:41;;;;;;;18.70;11.80;;;7.30;99.90;;;;;;4960511;28;20086;-63
2022/04/21 01:13:09;;;;;;;18.52;12.60;;;7.30;99.90;;;;;;4960759;28;20076;-62
2022/04/21 01:15:37;;;;;;;17.05;12.23;;;7.30;99.90;;;;;;4948534;28;20096;-63
2022/04/21 01:18:04;;;;;;;17.23;12.80;;;7.20;99.90;;;;;;4955826;28;20072;-62
2022/04/21 01:20:29;;;;;;;18.55;12.68;;;7.20;99.90;;;;;;4962856;28;20050;-62
2022/04/21 01:22:55;;;;;;;19.42;13.15;;;7.20;99.90;;;;;;4957861;28;20524;-63
2022/04/21 01:25:22;;;;;;;19.20;12.63;;;7.20;99.90;;;;;;4948946;28;20050;-63
2022/04/21 01:27:51;;;;;;;20.90;12.93;;;7.20;99.90;;;;;;4967513;28;20145;-63
2022/04/21 01:30:17;;;;;;;19.58;12.90;;;7.20;99.90;;;;;;4983931;28;20053;-63
2022/04/21 01:32:46;;;;;;;19.70;13.23;;;7.20;99.90;;;;;;4965977;28;20049;-62
2022/04/21 01:35:13;;;;;;;20.27;13.38;;;7.20;99.90;;;;;;4962643;28;20038;-63
2022/04/21 01:43:08;;;;;;;18.77;13.38;;;7.20;99.90;;;;;;4980186;28;20886;-63
2022/04/21 01:45:34;;;;;;;24.08;14.52;;;7.20;99.90;;;;;;4957385;28;20107;-63
2022/04/21 01:48:01;;;;;;;18.70;14.43;;;7.20;99.90;;;;;;4962614;28;20054;-62
2022/04/21 01:50:27;;;;;;;18.60;13.40;;;7.10;99.90;;;;;;4967544;28;20133;-62
2022/04/21 01:52:53;;;;;;;19.25;13.75;;;7.10;99.90;;;;;;4962601;28;20046;-62
2022/04/21 01:55:19;;;;;;;21.67;14.45;;;7.10;99.90;;;;;;4981791;28;20085;-62
2022/04/21 01:57:45;;;;;;;20.80;13.88;;;7.10;99.90;;;;;;4977869;28;20080;-62
2022/04/21 02:00:12;;;;;;;21.20;14.13;;;7.10;99.90;;;;;;4981217;28;20050;-62
2022/04/21 02:02:37;;;;;;;20.65;14.23;;;7.10;99.90;;;;;;4965183;28;20061;-62
2022/04/21 02:05:04;;;;;;;22.60;15.23;;;7.10;99.90;;;;;;4955192;28;21045;-62
2022/04/21 02:07:30;;;;;;;20.77;14.75;;;7.10;99.90;;;;;;4964555;28;20052;-63
2022/04/21 02:09:56;;;;;;;21.08;14.93;;;7.10;99.90;;;;;;4949885;28;20053;-62
2022/04/21 02:12:28;;;;;;;24.20;14.57;;;7.10;99.90;;;;;;4966598;28;20046;-63
2022/04/21 02:14:54;;;;;;;21.48;14.65;;;7.10;99.90;;;;;;4982656;28;20049;-63
2022/04/21 02:17:20;;;;;;;21.08;14.60;;;7.10;99.90;;;;;;4964793;28;20108;-62
2022/04/21 02:19:46;;;;;;;18.65;14.05;;;7.10;99.90;;;;;;4963236;28;20492;-63
2022/04/21 02:22:12;;;;;;;21.33;14.65;;;7.10;99.90;;;;;;4983506;28;20867;-62
2022/04/21 02:24:38;;;;;;;21.02;14.40;;;7.00;99.90;;;;;;4955480;28;20128;-62
2022/04/21 02:27:04;;;;;;;20.77;14.48;;;7.00;99.90;;;;;;4980468;28;20651;-62
2022/04/21 02:29:30;;;;;;;21.27;14.95;;;7.00;99.90;;;;;;4966993;28;20041;-63
2022/04/21 02:31:56;;;;;;;22.88;14.15;;;7.00;99.90;;;;;;4958765;28;20362;-62
2022/04/21 02:34:22;;;;;;;19.50;14.10;;;7.00;99.90;;;;;;4963754;28;20057;-63
2022/04/21 02:36:48;;;;;;;22.40;15.80;;;7.00;99.90;;;;;;4962455;28;20166;-62
2022/04/21 02:39:14;;;;;;;19.60;14.38;;;6.90;99.90;;;;;;4946808;28;20046;-62
2022/04/21 02:41:39;;;;;;;22.50;14.43;;;7.00;99.90;;;;;;4948431;28;20054;-62
2022/04/21 02:44:05;;;;;;;18.80;14.48;;;6.90;99.90;;;;;;4981129;28;20050;-62
2022/04/21 02:46:33;;;;;;;22.65;13.75;;;6.90;99.90;;;;;;4966176;28;20752;-62
2022/04/21 02:49:01;;;;;;;22.58;14.52;;;7.00;99.90;;;;;;4965766;28;20069;-63
2022/04/21 02:51:30;;;;;;;21.38;14.02;;;6.90;99.90;;;;;;4951665;28;20046;-62
2022/04/21 02:59:26;;;;;;;19.65;13.73;;;6.90;99.90;;;;;;4985374;28;20058;-62
2022/04/21 03:01:52;;;;;;;23.63;13.85;;;6.90;99.90;;;;;;4946760;28;20054;-62
2022/04/21 03:04:18;;;;;;;19.20;13.70;;;6.90;99.90;;;;;;4988870;28;20137;-62
2022/04/21 03:06:44;;;;;;;20.92;13.85;;;6.90;99.90;;;;;;4987083;28;20068;-63
2022/04/21 03:09:09;;;;;;;21.08;13.85;;;6.90;99.90;;;;;;4970967;28;20057;-62
2022/04/21 03:11:35;;;;;;;18.95;14.02;;;6.90;99.90;;;;;;4972273;28;20468;-62
2022/04/21 03:14:01;;;;;;;17.77;13.18;;;6.80;99.90;;;;;;4960649;28;20056;-62
2022/04/21 03:16:27;;;;;;;19.23;12.80;;;6.80;99.90;;;;;;4955241;28;20057;-62
2022/04/21 03:18:52;;;;;;;19.65;12.98;;;6.70;99.90;;;;;;4971105;28;20204;-63
2022/04/21 03:24:21;;;;;;;18.73;12.45;;;6.70;99.90;;;;;;4960500;28;20412;-62
2022/04/21 03:26:52;;;;;;;18.08;12.88;;;6.70;99.90;;;;;;4969023;28;20056;-62
2022/04/21 03:29:19;;;;;;;18.98;11.95;;;6.60;99.90;;;;;;4965263;28;20610;-63
2022/04/21 03:31:45;;;;;;;16.27;12.57;;;6.60;99.90;;;;;;4956967;28;20054;-62
2022/04/21 03:34:16;;;;;;;18.50;11.70;;;6.60;99.90;;;;;;4982493;28;20064;-62
2022/04/21 03:36:49;;;;;;;15.90;11.75;;;6.60;99.90;;;;;;4968501;28;20454;-62
2022/04/21 03:39:23;;;;;;;18.33;12.02;;;6.60;99.90;;;;;;4987516;28;20078;-62
2022/04/21 03:41:58;;;;;;;17.65;11.60;;;6.50;99.90;;;;;;4955256;28;20045;-62
2022/04/21 03:44:24;;;;;;;17.52;11.45;;;6.50;99.90;;;;;;4950681;28;20132;-63
2022/04/21 03:46:50;;;;;;;18.08;11.20;;;6.40;99.90;;;;;;4970230;28;20045;-62
2022/04/21 03:49:16;;;;;;;17.00;11.82;;;6.40;99.90;;;;;;4965522;28;20092;-62
2022/04/21 03:51:42;;;;;;;15.98;11.93;;;6.40;99.90;;;;;;4953916;28;20050;-62
2022/04/21 03:54:08;;;;;;;15.32;11.30;;;6.40;99.90;;;;;;4964854;28;20727;-62
2022/04/21 03:56:34;;;;;;;18.58;11.85;;;6.30;99.90;;;;;;4985818;28;20084;-62
2022/04/21 03:59:00;;;;;;;18.33;11.32;;;6.30;99.90;;;;;;4949532;28;20054;-62
2022/04/21 04:01:26;;;;;;;16.58;11.57;;;6.30;99.90;;;;;;4962657;28;20056;-62
2022/04/21 04:03:52;;;;;;;15.85;11.13;;;6.20;99.90;;;;;;4983999;28;20104;-62
2022/04/21 04:11:47;;;;;;;16.75;11.63;;;6.20;99.90;;;;;;4987105;28;20096;-62
2022/04/21 04:14:13;;;;;;;15.55;11.60;;;6.20;99.90;;;;;;4984373;28;20471;-62
2022/04/21 04:16:39;;;;;;;16.75;11.52;;;6.20;99.90;;;;;;4964852;28;20046;-62
2022/04/21 04:19:08;;;;;;;14.15;10.73;;;6.20;99.90;;;;;;4955254;28;20050;-62
2022/04/21 04:21:37;;;;;;;16.25;10.38;;;6.20;99.90;;;;;;4965031;28;20074;-62
2022/04/21 04:24:04;;;;;;;16.02;11.13;;;6.20;99.90;;;;;;4974826;28;20050;-62
2022/04/21 04:26:32;;;;;;;14.07;10.68;;;6.20;99.90;;;;;;4969576;28;20046;-62
2022/04/21 04:28:59;;;;;;;15.85;10.95;;;6.10;99.90;;;;;;4965562;28;20515;-62
2022/04/21 04:31:25;;;;;;;14.65;10.45;;;6.10;99.90;;;;;;4965312;28;20120;-62
2022/04/21 04:33:51;;;;;;;20.77;11.50;;;6.10;99.90;;;;;;4989575;28;20531;-62
2022/04/21 04:36:17;;;;;;;15.23;10.80;;;6.10;99.90;;;;;;4951034;28;20046;-62
2022/04/21 04:38:48;;;;;;;17.00;11.00;;;6.10;99.90;;;;;;4968678;28;20080;-62
2022/04/21 04:44:00;;;;;;;15.30;10.35;;;6.10;99.90;;;;;;4954833;28;20042;-62
2022/04/21 04:46:38;;;;;;;16.05;10.80;;;6.00;99.90;;;;;;4974982;28;20047;-62
2022/04/21 04:49:05;;;;;;;14.80;10.90;;;6.10;99.90;;;;;;4956259;28;20050;-62
2022/04/21 04:51:32;;;;;;;16.55;11.68;;;6.10;99.90;;;;;;4955806;28;20053;-60
2022/04/21 04:53:58;;;;;;;17.25;12.10;;;6.10;99.90;;;;;;4966456;28;20129;-62
2022/04/21 04:56:27;;;;;;;17.38;11.55;;;6.00;99.90;;;;;;4965725;28;20447;-63
2022/04/21 04:58:53;;;;;;;14.88;10.73;;;6.10;99.90;;;;;;4984357;28;20048;-62
2022/04/21 05:01:29;;;;;;;16.02;11.38;;;6.10;99.90;;;;;;4965197;28;20578;-62
2022/04/21 05:04:06;;;;;;;17.33;12.05;;;6.10;99.90;;;;;;4964385;28;20119;-62
2022/04/21 05:06:41;;;;;;;23.08;11.65;;;6.10;99.90;;;;;;4959544;28;20042;-62
2022/04/21 05:09:10;;;;;;;15.27;10.88;;;6.10;99.90;;;;;;4960205;28;20065;-62
2022/04/21 05:11:41;;;;;;;16.55;11.75;;;6.20;99.90;;;;;;4962577;28;20356;-62
2022/04/21 05:14:08;;;;;;;14.20;10.85;;;6.10;99.90;;;;;;4970934;28;20648;-62
2022/04/21 05:16:39;;;;;;;15.65;11.82;;;6.10;99.90;;;;;;4950744;28;20426;-62
2022/04/21 05:19:09;;;;;;;17.63;11.18;;;6.10;99.90;;;;;;4962235;28;20678;-62
2022/04/21 05:21:36;;;;;;;14.50;11.43;;;6.10;99.90;;;;;;4958106;28;20622;-62
2022/04/21 05:24:03;;;;;;;16.17;11.75;;;6.10;99.90;;;;;;4962254;28;20084;-62
2022/04/21 05:26:30;;;;;;;18.27;12.15;;;6.10;99.90;;;;;;4975337;28;20046;-63
2022/04/21 05:28:57;;;;;;;16.95;11.68;;;6.10;99.90;;;;;;4932239;28;20113;-62
2022/04/21 05:31:26;;;;;;;17.35;11.45;;;6.20;99.90;;;;;;4960762;28;20600;-62
2022/04/21 05:33:55;;;;;;;14.40;11.18;;;6.20;99.90;;;;;;4955937;28;20528;-63
2022/04/21 05:36:22;;;;;;;16.92;11.32;;;6.20;99.90;;;;;;4962579;28;20051;-62
2022/04/21 05:38:51;;;;;;;16.25;11.13;;;6.20;99.90;;;;;;4963583;28;20058;-62
2022/04/21 05:41:19;;;;;;;17.13;11.85;;;6.30;99.90;;;;;;4954695;28;20105;-62
2022/04/21 05:43:46;;;;;;;19.48;12.68;;;6.30;99.90;;;;;;4967662;28;20548;-62
2022/04/21 05:46:15;;;;;;;20.17;11.60;;;6.30;99.90;;;;;;4961189;28;20046;-62
2022/04/21 05:48:41;;;;;;;16.80;11.73;;;6.30;99.90;;;;;;4969721;28;20113;-62
2022/04/21 05:51:10;;;;;;;17.83;12.15;;;6.40;99.90;;;;;;4965127;28;20512;-62
2022/04/21 05:53:38;;;;;;;16.58;11.23;;;6.40;99.90;;;;;;4965420;28;20052;-63
2022/04/21 05:56:08;;;;;;;17.05;11.05;;;6.50;99.90;;;;;;4962554;28;20461;-62
2022/04/21 05:58:38;;;;;;;19.08;12.27;;;6.50;99.90;;;;;;4957112;28;20038;-62
2022/04/21 06:01:10;;;;;;;17.42;11.93;;;6.50;99.90;;;;;;4968597;28;20153;-62
2022/04/21 06:03:41;;;;;;;18.77;11.85;;;6.60;99.90;;;;;;4948398;28;20042;-62
2022/04/21 06:06:09;;;;;;;19.45;11.98;;;6.70;99.90;;;;;;4971288;28;20042;-62
2022/04/21 06:08:35;;;;;;;24.05;12.07;;;6.70;99.90;;;;;;4965922;28;20089;-62
2022/04/21 06:11:02;;;;;;;15.88;11.68;;;6.80;99.90;;;;;;4943840;28;20744;-62
2022/04/21 06:13:30;;;;;;;17.42;11.70;;;6.90;99.90;;;;;;4964540;28;20085;-62
2022/04/21 06:15:56;;;;;;;16.42;11.55;;;6.90;99.90;;;;;;4966716;28;20108;-62
2022/04/21 06:18:23;;;;;;;14.10;11.05;;;7.00;99.90;;;;;;4969236;28;20078;-62
2022/04/21 06:20:51;;;;;;;18.10;11.70;;;7.10;99.90;;;;;;4967692;28;20505;-62
2022/04/21 06:23:17;;;;;;;19.38;11.13;;;7.20;99.90;;;;;;4986437;28;20532;-62
2022/04/21 06:25:43;;;;;;;14.85;10.68;;;7.30;99.90;;;;;;4970206;28;20084;-62
2022/04/21 06:28:11;;;;;;;16.35;11.02;;;7.40;99.90;;;;;;4974638;28;20050;-62
2022/04/21 06:30:37;;;;;;;15.88;10.90;;;7.50;99.90;;;;;;4965823;28;20129;-62
2022/04/21 06:33:03;;;;;;;15.93;11.05;;;7.60;99.90;;;;;;4984943;28;20042;-62
2022/04/21 06:35:29;;;;;;;17.00;10.60;;;7.70;99.90;;;;;;4986344;28;20049;-62
2022/04/21 06:37:56;;;;;;;12.82;10.40;;;7.80;99.90;;;;;;4956988;28;20057;-62
2022/04/21 06:40:22;;;;;;;15.68;11.00;;;7.90;99.90;;;;;;4967061;28;20195;-62
2022/04/21 06:42:48;;;;;;;14.43;9.85;;;8.00;99.90;;;;;;4966020;28;20045;-62
2022/04/21 06:48:02;;;;;;;14.50;9.75;;;8.20;99.90;;;;;;4968014;28;20064;-62
2022/04/21 06:50:39;;;;;;;12.60;9.77;;;8.40;99.90;;;;;;4967816;28;20042;-62
2022/04/21 06:53:07;;;;;;;14.60;9.25;;;8.50;99.90;;;;;;4968092;28;20050;-62
2022/04/21 06:55:33;;;;;;;15.10;8.63;;;8.60;99.90;;;;;;4965587;28;20189;-62
2022/04/21 06:57:59;;;;;;;13.10;8.23;;;8.80;99.90;;;;;;4938278;28;20109;-62
2022/04/21 07:00:28;;;;;;;26.13;9.27;;;8.90;99.90;;;;;;4978553;28;20068;-63
2022/04/21 07:02:57;;;;;;;14.75;8.55;;;9.10;99.90;;;;;;4924607;28;20171;-62
2022/04/21 07:05:27;;;;;;;13.13;7.70;;;9.20;99.90;;;;;;4959778;28;20050;-62
2022/04/21 07:07:53;;;;;;;12.07;8.15;;;9.40;99.90;;;;;;4951984;28;20802;-62
2022/04/21 07:10:20;;;;;;;10.35;7.35;;;9.50;99.90;;;;;;4987124;28;20046;-63
2022/04/21 07:12:47;;;;;;;7.70;6.10;;;9.60;99.90;;;;;;4945391;28;20248;-62
2022/04/21 07:15:14;;;;;;;10.75;6.57;;;9.80;99.90;;;;;;4973647;28;20586;-62
2022/04/21 07:17:40;;;;;;;8.60;5.40;;;9.90;99.90;;;;;;4955880;28;20075;-62
2022/04/21 07:20:08;;;;;;;7.95;5.70;;;10.00;99.90;;;;;;4974510;28;20066;-63
2022/04/21 07:22:34;;;;;;;8.20;5.45;;;10.10;99.90;;;;;;4973773;28;20563;-63
2022/04/21 07:25:08;;;;;;;10.05;5.88;;;10.30;99.90;;;;;;4971936;28;20046;-62
2022/04/21 07:27:36;;;;;;;15.95;6.07;;;10.50;99.90;;;;;;4969889;28;21090;-63
2022/04/21 07:30:02;;;;;;;13.25;6.68;;;10.60;99.90;;;;;;4986738;28;20042;-62
2022/04/21 07:32:28;;;;;;;9.98;5.90;;;10.70;99.90;;;;;;4969653;28;20112;-62
2022/04/21 07:34:54;;;;;;;9.65;5.82;;;10.90;99.90;;;;;;4985005;28;20049;-62
2022/04/21 07:37:21;;;;;;;9.82;6.20;;;11.10;99.90;;;;;;4988787;28;20046;-63
2022/04/21 07:39:47;;;;;;;10.63;6.43;;;11.20;99.50;;;;;;4952325;28;20042;-63
2022/04/21 07:42:13;;;;;;;8.93;6.15;;;11.30;98.40;;;;;;4946941;28;20127;-62
2022/04/21 07:44:39;;;;;;;11.13;5.97;;;11.40;97.90;;;;;;4963858;28;20370;-63
2022/04/21 07:47:06;;;;;;;7.47;5.88;;;11.50;97.20;;;;;;4975618;28;20418;-63
2022/04/21 07:49:45;;;;;;;10.82;6.57;;;11.70;97.00;;;;;;4970014;28;20042;-63
2022/04/21 07:55:18;;;;;;;6.07;5.13;;;11.90;96.20;;;;;;4981189;28;20408;-63
2022/04/21 07:57:47;;;;;;;6.15;4.78;;;12.10;94.90;;;;;;4979046;28;20140;-63
2022/04/21 08:00:16;;;;;;;8.43;5.07;;;12.20;94.20;;;;;;4952406;28;20058;-63
2022/04/21 08:02:45;;;;;;;5.65;4.57;;;12.30;93.00;;;;;;4967311;28;20436;-63
2022/04/21 08:05:13;;;;;;;9.65;4.70;;;12.40;92.60;;;;;;4969237;28;20054;-63
2022/04/21 08:07:39;;;;;;;4.88;4.18;;;12.50;91.80;;;;;;4979957;28;20046;-63
2022/04/21 08:10:10;;;;;;;8.40;4.30;;;12.60;91.30;;;;;;4974312;28;20497;-63
2022/04/21 08:12:43;;;;;;;6.95;3.95;;;12.60;91.00;;;;;;4964206;28;20073;-63
2022/04/21 08:15:30;;;;;;;7.82;4.53;;;12.70;89.30;;;;;;4962447;28;20049;-63
2022/04/21 08:17:59;;;;;;;10.73;4.25;;;12.80;88.40;;;;;;4983436;28;20057;-63
2022/04/21 08:20:27;;;;;;;9.35;4.68;;;12.90;87.80;;;;;;4963855;28;20058;-63
2022/04/21 08:22:53;;;;;;;4.15;3.58;;;13.00;87.00;;;;;;4970416;28;20041;-63
2022/04/21 08:33:36;;;;;;;7.30;4.13;;;13.50;84.70;;;;;;4956843;28;20061;-63
2022/04/21 08:36:03;;;;;;;6.10;3.60;;;13.70;83.10;;;;;;4977159;28;20476;-63
2022/04/21 08:38:30;;;;;;;4.70;3.38;;;13.80;82.60;;;;;;4946761;28;20052;-63
2022/04/21 08:41:04;;;;;;;8.50;4.85;;;13.90;81.90;;;;;;4983213;28;20043;-63
2022/04/21 08:43:30;;;;;;;7.60;5.82;;;14.00;81.40;;;;;;4959514;28;20054;-63
2022/04/21 08:45:56;;;;;;;12.15;5.90;;;14.10;81.50;;;;;;4983284;28;20065;-63
2022/04/21 08:48:24;;;;;;;8.35;5.03;;;14.20;81.80;;;;;;4966820;28;20151;-63
2022/04/21 08:50:51;;;;;;;10.85;5.60;;;14.30;80.20;;;;;;4959232;28;20049;-63
2022/04/21 08:53:23;;;;;;;9.60;5.90;;;14.30;79.30;;;;;;4931981;28;20190;-63
2022/04/21 08:55:50;;;;;;;;;;;14.30;78.60;;;;;;4983685;28;20050;-63
2022/04/21 08:58:16;;;;;;;10.40;4.35;;;14.40;79.80;;;;;;4943047;28;19921;-63
2022/04/21 09:00:43;;;;;;;12.85;3.97;;;14.40;78.70;;;;;;4977457;28;20054;-63
2022/04/21 09:03:12;;;;;;;4.05;3.33;;;14.50;78.30;;;;;;4955130;28;20042;-63
2022/04/21 09:05:39;;;;;;;8.88;3.90;;;14.60;76.30;;;;;;4964783;28;22012;-63
2022/04/21 09:08:16;;;;;;;7.00;3.97;;;14.70;75.80;;;;;;4967097;28;20133;-63
2022/04/21 09:10:43;;;;;;;4.60;3.53;;;14.70;74.90;;;;;;4987269;28;20049;-63
2022/04/21 09:13:09;;;;;;;3.92;3.30;;;14.80;74.50;;;;;;4970137;28;20046;-63
2022/04/21 09:15:36;;;;;;;9.35;4.07;;;14.80;74.50;;;;;;4985920;28;20057;-63
2022/04/21 09:18:10;;;;;;;8.15;3.67;;;14.90;73.90;;;;;;4987857;28;20046;-63
2022/04/21 09:20:36;;;;;;;4.70;3.35;;;14.90;73.10;;;;;;4969443;28;20139;-63
2022/04/21 09:23:12;;;;;;;7.00;3.53;;;15.00;72.30;;;;;;4959530;28;21592;-63
2022/04/21 09:25:50;;;;;;;6.43;3.60;;;15.00;72.30;;;;;;4972888;28;20050;-64
2022/04/21 09:28:24;;;;;;;5.47;3.28;;;15.10;72.40;;;;;;4940243;28;20137;-63
2022/04/21 09:30:59;;;;;;;3.58;3.15;;;15.30;74.00;;;;;;4952583;28;20140;-63
2022/04/21 09:33:33;;;;;;;6.25;3.70;;;15.40;72.90;;;;;;4955147;28;20061;-63
2022/04/21 09:36:01;;;;;;;7.15;3.90;;;15.50;72.80;;;;;;4954787;28;20497;-63
2022/04/21 09:38:28;;;;;;;4.10;3.25;;;15.60;72.60;;;;;;4952946;28;20057;-63
2022/04/21 09:40:54;;;;;;;6.65;3.42;;;15.70;72.40;;;;;;4958705;28;20061;-64
2022/04/21 09:43:31;;;;;;;5.25;3.45;;;15.80;72.10;;;;;;4953050;28;20081;-64
2022/04/21 09:46:16;;;;;;;4.95;3.53;;;15.90;71.60;;;;;;4964526;28;20519;-63
2022/04/21 09:48:44;;;;;;;5.93;3.63;;;16.00;71.90;;;;;;4944175;28;20500;-63
2022/04/21 09:51:18;;;;;;;9.95;3.22;;;16.10;71.20;;;;;;4924905;28;20076;-63
2022/04/21 09:53:59;;;;;;;5.28;3.20;;;16.10;70.50;;;;;;4931383;28;20053;-64
2022/04/21 09:56:29;;;;;;;7.25;3.40;;;16.10;70.20;;;;;;4946799;28;20061;-63
2022/04/21 09:58:56;;;;;;;4.80;3.45;;;16.20;69.00;;;;;;4942692;28;20610;-63
2022/04/21 10:01:22;;;;;;;8.27;3.70;;;16.10;69.00;;;;;;4941660;28;20058;-64
2022/04/21 10:03:49;;;;;;;13.38;3.92;;;16.20;69.30;;;;;;4972650;28;20226;-64
2022/04/21 10:06:16;;;;;;;14.32;3.92;;;16.20;69.10;;;;;;4942408;28;20050;-63
2022/04/21 10:08:44;;;;;;;12.38;4.30;;;16.30;69.00;;;;;;4956184;28;20120;-64
2022/04/21 10:11:10;;;;;;;6.07;3.47;;;16.40;68.80;;;;;;4954305;28;20170;-63
2022/04/21 10:13:36;;;;;;;6.75;3.40;;;16.50;68.20;;;;;;4952632;28;20169;-63
2022/04/21 10:16:03;;;;;;;7.47;3.70;;;16.50;68.10;;;;;;4930756;28;20587;-63
2022/04/21 10:18:28;;;;;;;6.20;3.40;;;16.60;68.50;;;;;;4940462;28;20050;-64
2022/04/21 10:20:55;;;;;;;5.97;3.20;;;16.70;67.60;;;;;;4959983;28;20056;-63
2022/04/21 10:23:23;;;;;;;4.13;3.30;;;16.80;67.50;;;;;;4954172;28;20053;-64
2022/04/21 10:26:03;;;;;;;4.53;3.33;;;16.80;66.60;;;;;;4959487;28;20586;-64
2022/04/21 10:28:40;;;;;;;5.43;3.78;;;17.00;66.80;;;;;;4970623;28;20056;-64
2022/04/21 10:31:27;;;;;;;7.28;3.13;;;17.10;66.80;;;;;;4974901;28;20050;-64
2022/04/21 10:33:55;;;;;;;6.38;2.70;;;17.10;66.80;;;;;;4955532;28;20589;-64
2022/04/21 10:36:42;;;;;;;9.25;4.35;;;17.20;66.30;;;;;;4955829;28;20068;-63
2022/04/21 10:39:17;;;;;;;5.20;3.42;;;17.30;65.30;;;;;;4948257;28;20046;-63
2022/04/21 10:41:44;;;;;;;4.40;3.30;;;17.30;65.60;;;;;;4939694;28;20046;-64
2022/04/21 10:44:26;;;;;;;6.18;3.70;;;17.30;65.80;;;;;;4951803;28;20046;-64
2022/04/21 10:47:30;;;;;;;5.97;3.28;;;17.40;66.50;;;;;;4936938;28;20149;-63
2022/04/21 10:50:01;;;;;;;14.18;2.95;;;17.50;67.10;;;;;;4944400;28;20497;-63
2022/04/21 10:57:49;;;;;;;3.40;2.92;;;17.80;64.30;;;;;;4950523;28;20100;-64
2022/04/21 11:00:31;;;;;;;6.88;3.20;;;17.90;64.50;;;;;;4956778;28;20140;-64
2022/04/21 11:03:01;;;;;;;4.82;2.83;;;18.00;64.20;;;;;;4955732;28;20081;-63
2022/04/21 11:05:33;;;;;;;8.82;3.10;;;18.00;62.80;;;;;;4971395;28;20050;-64
2022/04/21 11:08:03;;;;;;;6.95;2.83;;;17.90;62.00;;;;;;4938858;28;20046;-63
2022/04/21 11:10:41;;;;;;;4.25;2.63;;;17.90;62.70;;;;;;4973082;28;20084;-63
2022/04/21 11:13:11;;;;;;;6.13;2.67;;;18.00;63.10;;;;;;4949835;28;20491;-63
2022/04/21 11:15:44;;;;;;;4.55;2.72;;;18.10;62.70;;;;;;4944634;28;20153;-63
2022/04/21 11:18:12;;;;;;;6.00;2.85;;;18.30;62.80;;;;;;4969260;28;20050;-63
2022/04/21 11:20:49;;;;;;;5.60;2.85;;;18.40;61.20;;;;;;4970377;28;20042;-63
2022/04/21 11:23:30;;;;;;;7.55;3.05;;;18.30;59.10;;;;;;4940873;28;20454;-64
2022/04/21 11:26:07;;;;;;;4.68;2.90;;;18.40;60.80;;;;;;4974592;28;20100;-63
2022/04/21 11:28:33;;;;;;;6.95;2.90;;;18.40;60.30;;;;;;4925325;28;20066;-63
2022/04/21 11:31:00;;;;;;;9.27;2.53;;;18.60;60.50;;;;;;4943901;28;21065;-64
2022/04/21 11:33:26;;;;;;;9.02;3.75;;;18.60;60.60;;;;;;4969293;28;20065;-63
2022/04/21 11:36:09;;;;;;;6.88;2.90;;;18.80;60.10;;;;;;4961581;28;20058;-63
2022/04/21 11:38:45;;;;;;;3.25;2.75;;;18.90;59.50;;;;;;4964922;28;20062;-64
2022/04/21 11:41:13;;;;;;;4.70;3.55;;;18.90;59.40;;;;;;4966408;28;20506;-64
2022/04/21 11:43:49;;;;;;;6.90;2.97;;;19.00;59.10;;;;;;4958571;28;20126;-63
2022/04/21 11:46:19;;;;;;;5.63;3.40;;;19.00;58.80;;;;;;4962171;28;20105;-64
2022/04/21 11:48:44;;;;;;;4.28;3.10;;;18.90;58.40;;;;;;4966546;28;20096;-64
2022/04/21 11:51:12;;;;;;;6.88;3.20;;;19.00;58.90;;;;;;4946466;28;20509;-64
2022/04/21 11:53:43;;;;;;;9.45;3.17;;;19.10;59.20;;;;;;4965759;28;20113;-64
2022/04/21 11:56:10;;;;;;;3.72;3.10;;;19.20;59.30;;;;;;4958360;28;20137;-64
2022/04/21 11:58:38;;;;;;;6.18;3.50;;;19.20;59.50;;;;;;4943620;28;20069;-64
2022/04/21 12:06:51;;;;;;;3.92;3.33;;;19.40;57.80;;;;;;4954648;28;20054;-64
2022/04/21 12:09:24;;;;;;;7.72;3.47;;;19.30;58.90;;;;;;4956965;28;20495;-64
2022/04/21 12:11:55;;;;;;;6.55;3.95;;;19.30;59.30;;;;;;4951465;28;20129;-64
2022/04/21 12:14:22;;;;;;;6.03;3.75;;;19.20;58.70;;;;;;4934584;28;20493;-64
2022/04/21 12:16:58;;;;;;;8.20;3.78;;;19.10;59.80;;;;;;4935359;28;20054;-64
2022/04/21 12:19:32;;;;;;;5.70;3.70;;;19.30;60.50;;;;;;4949537;28;20149;-64
2022/04/21 12:22:07;;;;;;;6.13;4.25;;;19.40;59.70;;;;;;4934791;28;20054;-64
2022/04/21 12:24:45;;;;;;;5.15;3.80;;;19.40;59.80;;;;;;4954956;28;20089;-64
2022/04/21 12:27:13;;;;;;;7.82;3.90;;;19.30;59.40;;;;;;4969464;28;20387;-64
2022/04/21 12:29:47;;;;;;;5.25;3.72;;;19.30;58.50;;;;;;4958562;28;20641;-64
2022/04/21 12:32:17;;;;;;;4.95;3.45;;;19.30;59.60;;;;;;4926486;28;21276;-64
2022/04/21 12:34:43;;;;;;;9.05;4.00;;;19.50;59.00;;;;;;4940956;28;20103;-64
2022/04/21 12:37:09;;;;;;;7.25;3.60;;;19.60;59.30;;;;;;4928195;28;20050;-64
2022/04/21 12:39:37;;;;;;;6.68;3.60;;;19.80;59.40;;;;;;4951524;28;20091;-64
2022/04/21 12:42:03;;;;;;;7.18;3.55;;;19.90;58.50;;;;;;4940551;28;20057;-64
2022/04/21 12:44:29;;;;;;;5.55;3.53;;;19.90;58.10;;;;;;4954348;28;20046;-64
2022/04/21 12:47:02;;;;;;;6.53;3.60;;;19.90;57.50;;;;;;4954561;28;20440;-65
2022/04/21 12:49:50;;;;;;;4.10;3.55;;;20.00;57.60;;;;;;4954515;28;20050;-64
2022/04/21 12:52:45;;;;;;;8.85;3.97;;;19.90;57.50;;;;;;4939577;28;20374;-64
2022/04/21 12:55:32;;;;;;;5.90;4.00;;;19.90;57.70;;;;;;4929719;28;20088;-64
2022/04/21 12:58:10;;;;;;;4.60;3.85;;;19.90;58.90;;;;;;4957558;28;20058;-64
2022/04/21 13:00:38;;;;;;;9.07;4.25;;;20.00;58.40;;;;;;4953580;28;20049;-64
2022/04/21 13:03:05;;;;;;;8.18;4.18;;;20.00;57.70;;;;;;4959426;28;20189;-64
2022/04/21 13:05:33;;;;;;;6.30;4.00;;;19.90;57.40;;;;;;4960368;28;20400;-64
2022/04/21 13:07:59;;;;;;;10.38;4.53;;;19.90;58.00;;;;;;4954423;28;20046;-64
2022/04/21 13:10:26;;;;;;;8.32;4.00;;;19.80;57.80;;;;;;4955747;28;20682;-64
2022/04/21 13:12:52;;;;;;;7.82;3.88;;;19.90;58.20;;;;;;4946875;28;20054;-64
2022/04/21 13:15:18;;;;;;;9.55;4.20;;;19.90;58.40;;;;;;4932262;28;20052;-65
2022/04/21 13:17:44;;;;;;;11.40;3.95;;;20.00;58.20;;;;;;4956692;28;20061;-64
2022/04/21 13:20:10;;;;;;;7.03;4.15;;;20.00;58.10;;;;;;4958448;28;20120;-64
2022/04/21 13:22:36;;;;;;;7.32;4.00;;;20.00;57.60;;;;;;4958110;28;20045;-64
2022/04/21 13:25:03;;;;;;;8.45;4.10;;;20.00;58.40;;;;;;4954783;28;20515;-64
2022/04/21 13:27:29;;;;;;;6.00;4.03;;;20.00;58.20;;;;;;4956635;28;20046;-64
2022/04/21 13:29:56;;;;;;;8.98;3.90;;;20.10;58.10;;;;;;4973831;28;21118;-64
2022/04/21 13:35:07;;;;;;;4.38;3.63;;;20.00;57.60;;;;;;4952876;28;20601;-64
2022/04/21 13:37:33;;;;;;;9.57;4.00;;;20.00;58.30;;;;;;4944651;28;20050;-64
2022/04/21 13:39:59;;;;;;;5.80;3.60;;;20.00;57.80;;;;;;4966386;28;20057;-64
2022/04/21 13:42:25;;;;;;;9.63;4.90;;;20.10;57.60;;;;;;4968699;28;20157;-64
2022/04/21 13:44:53;;;;;;;4.68;3.83;;;20.10;57.30;;;;;;4931063;28;20549;-64